Time,TemperatureF,DewpointF,PressureIn,WindDirection,WindDirectionDegrees,WindSpeedMPH,WindSpeedGustMPH,Humidity,HourlyPrecipIn,Conditions,Clouds,dailyrainin,SolarRadiationWatts/m^2,SoftwareType,DateUTC
2013-04-13 00:03:00,54.0,44.0,-100.00,ENE,57,0.0,0.0,69,0.00,,,0.00,0.000000,,2013-04-13 04:03:00,
2013-04-13 00:12:00,54.0,44.0,-100.00,ENE,57,0.0,0.0,69,0.00,,,0.00,0.000000,,2013-04-13 04:12:00,
2013-04-13 00:23:00,54.0,44.0,-100.00,ENE,57,0.0,0.0,69,0.00,,,0.00,0.000000,,2013-04-13 04:23:00,
2013-04-13 00:32:00,52.0,44.0,-100.00,NE,45,0.0,0.0,73,0.00,,,0.00,0.000000,,2013-04-13 04:32:00,
2013-04-13 00:53:00,52.0,44.0,-100.00,NE,45,0.0,0.0,73,0.00,,,0.00,0.000000,,2013-04-13 04:53:00,
2013-04-13 01:02:00,52.0,44.0,-100.00,NE,45,0.0,0.0,73,0.00,,,0.00,0.000000,,2013-04-13 05:02:00,
2013-04-13 01:12:00,52.0,44.0,-100.00,NE,45,0.0,0.0,73,0.00,,,0.00,0.000000,,2013-04-13 05:12:00,
2013-04-13 01:22:00,52.0,44.0,-100.00,NE,45,0.0,0.0,73,0.00,,,0.00,0.000000,,2013-04-13 05:22:00,
2013-04-13 01:32:00,53.0,44.0,-100.00,ENE,60,3.0,6.0,72,0.00,,,0.00,0.000000,,2013-04-13 05:32:00,
2013-04-13 01:53:00,53.0,44.0,-100.00,ENE,60,3.0,6.0,72,0.00,,,0.00,0.000000,,2013-04-13 05:53:00,
2013-04-13 02:02:00,53.0,44.0,-100.00,ENE,60,3.0,6.0,72,0.00,,,0.00,0.000000,,2013-04-13 06:02:00,
2013-04-13 02:12:00,53.0,44.0,-100.00,ENE,60,3.0,6.0,72,0.00,,,0.00,0.000000,,2013-04-13 06:12:00,
2013-04-13 02:23:00,53.0,44.0,-100.00,ENE,60,3.0,6.0,72,0.00,,,0.00,0.000000,,2013-04-13 06:23:00,
2013-04-13 02:32:00,50.0,45.0,-100.00,WSW,245,0.0,5.0,82,0.00,,,0.00,0.000000,,2013-04-13 06:32:00,
2013-04-13 02:55:00,50.0,45.0,-100.00,WSW,245,0.0,5.0,82,0.00,,,0.00,0.000000,,2013-04-13 06:55:00,
2013-04-13 03:05:00,50.0,45.0,-100.00,WSW,245,0.0,5.0,82,0.00,,,0.00,0.000000,,2013-04-13 07:05:00,
2013-04-13 03:14:00,50.0,45.0,-100.00,WSW,245,0.0,5.0,82,0.00,,,0.00,0.000000,,2013-04-13 07:14:00,
2013-04-13 03:24:00,50.0,45.0,-100.00,WSW,245,0.0,5.0,82,0.00,,,0.00,0.000000,,2013-04-13 07:24:00,
2013-04-13 03:32:00,49.0,45.0,-100.00,NNW,337,0.0,0.0,85,0.00,,,0.00,0.000000,,2013-04-13 07:32:00,
2013-04-13 03:56:00,49.0,45.0,-100.00,NNW,337,0.0,0.0,85,0.00,,,0.00,0.000000,,2013-04-13 07:56:00,
2013-04-13 04:06:00,49.0,45.0,-100.00,NNW,337,0.0,0.0,85,0.00,,,0.00,0.000000,,2013-04-13 08:06:00,
2013-04-13 04:15:00,49.0,45.0,-100.00,NNW,337,0.0,0.0,85,0.00,,,0.00,0.000000,,2013-04-13 08:15:00,
2013-04-13 04:25:00,49.0,45.0,-100.00,NNW,337,0.0,0.0,85,0.00,,,0.00,0.000000,,2013-04-13 08:25:00,
2013-04-13 04:32:00,48.0,45.0,-100.00,NNE,14,0.0,1.0,88,0.00,,,0.00,0.000000,,2013-04-13 08:32:00,
2013-04-13 04:54:00,48.0,45.0,-100.00,NNE,14,0.0,1.0,88,0.00,,,0.00,0.000000,,2013-04-13 08:54:00,
2013-04-13 05:05:00,48.0,45.0,-100.00,NNE,14,0.0,1.0,88,0.00,,,0.00,0.000000,,2013-04-13 09:05:00,
2013-04-13 05:14:00,48.0,45.0,-100.00,NNE,14,0.0,1.0,88,0.00,,,0.00,0.000000,,2013-04-13 09:14:00,
2013-04-13 05:24:00,48.0,45.0,-100.00,NNE,14,0.0,1.0,88,0.00,,,0.00,0.000000,,2013-04-13 09:24:00,
2013-04-13 05:32:00,47.0,43.0,-100.00,NE,51,0.0,0.0,86,0.00,,,0.00,0.000000,,2013-04-13 09:32:00,
2013-04-13 05:55:00,47.0,43.0,-100.00,NE,51,0.0,0.0,86,0.00,,,0.00,0.000000,,2013-04-13 09:55:00,
2013-04-13 06:05:00,47.0,43.0,-100.00,NE,51,0.0,0.0,86,0.00,,,0.00,0.000000,,2013-04-13 10:05:00,
2013-04-13 06:24:00,47.0,43.0,-100.00,NE,51,0.0,0.0,86,0.00,,,0.00,0.000000,,2013-04-13 10:24:00,
2013-04-13 06:32:00,48.0,44.0,-100.00,NE,56,1.0,3.0,86,0.00,,,0.00,0.000000,,2013-04-13 10:32:00,
2013-04-13 06:55:00,48.0,44.0,-100.00,NE,56,1.0,3.0,86,0.00,,,0.00,0.000000,,2013-04-13 10:55:00,
2013-04-13 07:06:00,48.0,44.0,-100.00,NE,56,1.0,3.0,86,0.00,,,0.00,0.000000,,2013-04-13 11:06:00,
2013-04-13 07:13:00,48.0,44.0,-100.00,NE,56,1.0,3.0,86,0.00,,,0.00,0.000000,,2013-04-13 11:13:00,
2013-04-13 07:24:00,48.0,44.0,-100.00,NE,56,1.0,3.0,86,0.00,,,0.00,0.000000,,2013-04-13 11:24:00,
2013-04-13 07:32:00,47.0,43.0,-100.00,NNE,32,2.0,4.0,86,0.00,,,0.00,0.000000,,2013-04-13 11:32:00,
2013-04-13 07:54:00,47.0,43.0,-100.00,NNE,32,2.0,4.0,86,0.00,,,0.00,0.000000,,2013-04-13 11:54:00,
2013-04-13 08:08:00,47.0,43.0,-100.00,NNE,32,2.0,4.0,86,0.00,,,0.00,0.000000,,2013-04-13 12:08:00,
2013-04-13 08:15:00,47.0,43.0,-100.00,NNE,32,2.0,4.0,86,0.00,,,0.00,0.000000,,2013-04-13 12:15:00,
2013-04-13 08:24:00,47.0,43.0,-100.00,NNE,32,2.0,4.0,86,0.00,,,0.00,0.000000,,2013-04-13 12:24:00,
2013-04-13 08:32:00,51.0,44.0,-100.00,ENE,65,2.0,5.0,77,0.00,,,0.00,32.000000,,2013-04-13 12:32:00,
2013-04-13 08:55:00,51.0,44.0,-100.00,ENE,65,2.0,5.0,77,0.00,,,0.00,32.000000,,2013-04-13 12:55:00,
2013-04-13 09:06:00,51.0,44.0,-100.00,ENE,65,2.0,5.0,77,0.00,,,0.00,32.000000,,2013-04-13 13:06:00,
2013-04-13 09:15:00,51.0,44.0,-100.00,ENE,65,2.0,5.0,77,0.00,,,0.00,32.000000,,2013-04-13 13:15:00,
2013-04-13 09:27:00,51.0,44.0,-100.00,ENE,65,2.0,5.0,77,0.00,,,0.00,32.000000,,2013-04-13 13:27:00,
2013-04-13 09:32:00,61.0,47.0,-100.00,ENE,69,2.0,11.0,61,0.00,,,0.00,169.000000,,2013-04-13 13:32:00,
2013-04-13 09:57:00,61.0,47.0,-100.00,ENE,69,2.0,11.0,61,0.00,,,0.00,169.000000,,2013-04-13 13:57:00,
2013-04-13 10:04:00,61.0,47.0,-100.00,ENE,69,2.0,11.0,61,0.00,,,0.00,169.000000,,2013-04-13 14:04:00,
2013-04-13 10:14:00,61.0,47.0,-100.00,ENE,69,2.0,11.0,61,0.00,,,0.00,169.000000,,2013-04-13 14:14:00,
2013-04-13 10:23:00,61.0,47.0,-100.00,ENE,69,2.0,11.0,61,0.00,,,0.00,169.000000,,2013-04-13 14:23:00,
2013-04-13 10:32:00,68.0,48.0,-100.00,ESE,102,3.0,127.0,48,0.00,,,0.00,468.000000,,2013-04-13 14:32:00,
2013-04-13 10:59:00,68.0,48.0,-100.00,ESE,102,3.0,127.0,48,0.00,,,0.00,468.000000,,2013-04-13 14:59:00,
2013-04-13 11:05:00,68.0,48.0,-100.00,ESE,102,3.0,127.0,48,0.00,,,0.00,468.000000,,2013-04-13 15:05:00,
2013-04-13 11:14:00,68.0,48.0,-100.00,ESE,102,3.0,127.0,48,0.00,,,0.00,468.000000,,2013-04-13 15:14:00,
2013-04-13 11:28:00,68.0,48.0,-100.00,ESE,102,3.0,127.0,48,0.00,,,0.00,468.000000,,2013-04-13 15:28:00,
2013-04-13 11:32:00,72.0,45.0,-100.00,ESE,114,4.0,8.0,38,0.00,,,0.00,633.000000,,2013-04-13 15:32:00,
2013-04-13 11:58:00,72.0,45.0,-100.00,ESE,114,4.0,8.0,38,0.00,,,0.00,633.000000,,2013-04-13 15:58:00,
2013-04-13 12:07:00,72.0,45.0,-100.00,ESE,114,4.0,8.0,38,0.00,,,0.00,633.000000,,2013-04-13 16:07:00,
2013-04-13 12:15:00,72.0,45.0,-100.00,ESE,114,4.0,8.0,38,0.00,,,0.00,633.000000,,2013-04-13 16:15:00,
2013-04-13 12:24:00,72.0,45.0,-100.00,ESE,114,4.0,8.0,38,0.00,,,0.00,633.000000,,2013-04-13 16:24:00,
2013-04-13 12:32:00,74.0,45.0,-100.00,East,101,5.0,11.0,35,0.00,,,-99.99,865.000000,,2013-04-13 16:32:00,
2013-04-13 13:07:00,74.0,45.0,-100.00,East,101,5.0,11.0,35,0.00,,,-99.99,865.000000,,2013-04-13 17:07:00,
2013-04-13 13:25:00,74.0,45.0,-100.00,East,101,5.0,11.0,35,0.00,,,-99.99,865.000000,,2013-04-13 17:25:00,
2013-04-13 13:32:00,75.0,43.0,-100.00,East,90,5.0,12.0,32,0.00,,,0.00,757.000000,,2013-04-13 17:32:00,
2013-04-13 14:04:00,75.0,43.0,-100.00,East,90,5.0,12.0,32,0.00,,,0.00,757.000000,,2013-04-13 18:04:00,
2013-04-13 14:15:00,75.0,43.0,-100.00,East,90,5.0,12.0,32,0.00,,,0.00,757.000000,,2013-04-13 18:15:00,
2013-04-13 14:24:00,75.0,43.0,-100.00,East,90,5.0,12.0,32,0.00,,,0.00,757.000000,,2013-04-13 18:24:00,
2013-04-13 14:32:00,74.0,41.0,-100.00,ENE,71,6.0,19.0,31,0.00,,,0.00,591.000000,,2013-04-13 18:32:00,
2013-04-13 14:53:00,74.0,41.0,-100.00,ENE,71,6.0,19.0,31,0.00,,,0.00,591.000000,,2013-04-13 18:53:00,
2013-04-13 15:03:00,74.0,41.0,-100.00,ENE,71,6.0,19.0,31,0.00,,,0.00,591.000000,,2013-04-13 19:03:00,
2013-04-13 15:12:00,74.0,41.0,-100.00,ENE,71,6.0,19.0,31,0.00,,,0.00,591.000000,,2013-04-13 19:12:00,
2013-04-13 15:22:00,74.0,41.0,-100.00,ENE,71,6.0,19.0,31,0.00,,,0.00,591.000000,,2013-04-13 19:22:00,
2013-04-13 15:32:00,78.0,43.0,-100.00,ENE,69,6.0,12.0,29,0.00,,,0.00,882.000000,,2013-04-13 19:32:00,
2013-04-13 15:53:00,78.0,43.0,-100.00,ENE,69,6.0,12.0,29,0.00,,,0.00,882.000000,,2013-04-13 19:53:00,
2013-04-13 16:02:00,78.0,43.0,-100.00,ENE,69,6.0,12.0,29,0.00,,,0.00,882.000000,,2013-04-13 20:02:00,
2013-04-13 16:12:00,78.0,43.0,-100.00,ENE,69,6.0,12.0,29,0.00,,,0.00,882.000000,,2013-04-13 20:12:00,
2013-04-13 16:22:00,78.0,43.0,-100.00,ENE,69,6.0,12.0,29,0.00,,,0.00,882.000000,,2013-04-13 20:22:00,
2013-04-13 17:32:00,80.0,42.0,-100.00,ENE,73,7.0,14.0,26,-99.99,,,0.00,665.000000,,2013-04-13 21:32:00,
2013-04-13 17:53:00,80.0,42.0,-100.00,ENE,73,7.0,14.0,26,-99.99,,,0.00,665.000000,,2013-04-13 21:53:00,
2013-04-13 18:03:00,80.0,42.0,-100.00,ENE,73,7.0,14.0,26,-99.99,,,0.00,665.000000,,2013-04-13 22:03:00,
2013-04-13 18:12:00,80.0,42.0,-100.00,ENE,73,7.0,14.0,26,-99.99,,,0.00,665.000000,,2013-04-13 22:12:00,
2013-04-13 18:22:00,80.0,42.0,-100.00,ENE,73,7.0,14.0,26,-99.99,,,0.00,665.000000,,2013-04-13 22:22:00,
2013-04-13 18:32:00,79.0,40.0,-100.00,East,85,5.0,13.0,25,0.00,,,0.00,477.000000,,2013-04-13 22:32:00,
2013-04-13 18:53:00,79.0,40.0,-100.00,East,85,5.0,13.0,25,0.00,,,0.00,477.000000,,2013-04-13 22:53:00,
2013-04-13 19:02:00,79.0,40.0,-100.00,East,85,5.0,13.0,25,0.00,,,0.00,477.000000,,2013-04-13 23:02:00,
2013-04-13 19:12:00,79.0,40.0,-100.00,East,85,5.0,13.0,25,0.00,,,0.00,477.000000,,2013-04-13 23:12:00,
2013-04-13 19:22:00,79.0,40.0,-100.00,East,85,5.0,13.0,25,0.00,,,0.00,477.000000,,2013-04-13 23:22:00,
2013-04-13 19:32:00,77.0,40.0,-100.00,ENE,65,7.0,24.0,27,0.00,,,0.00,287.000000,,2013-04-13 23:32:00,
2013-04-13 19:53:00,77.0,40.0,-100.00,ENE,65,7.0,24.0,27,0.00,,,0.00,287.000000,,2013-04-13 23:53:00,
2013-04-13 20:02:00,77.0,40.0,-100.00,ENE,65,7.0,24.0,27,0.00,,,0.00,287.000000,,2013-04-14 00:02:00,
2013-04-13 20:12:00,77.0,40.0,-100.00,ENE,65,7.0,24.0,27,0.00,,,0.00,287.000000,,2013-04-14 00:12:00,
2013-04-13 20:22:00,77.0,40.0,-100.00,ENE,65,7.0,24.0,27,0.00,,,0.00,287.000000,,2013-04-14 00:22:00,
2013-04-13 20:32:00,71.0,45.0,-100.00,NNE,12,0.0,15.0,39,0.00,,,0.00,79.000000,,2013-04-14 00:32:00,
2013-04-13 20:52:00,71.0,45.0,-100.00,NNE,12,0.0,15.0,39,0.00,,,0.00,79.000000,,2013-04-14 00:52:00,
2013-04-13 21:02:00,71.0,45.0,-100.00,NNE,12,0.0,15.0,39,0.00,,,0.00,79.000000,,2013-04-14 01:02:00,
2013-04-13 21:12:00,71.0,45.0,-100.00,NNE,12,0.0,15.0,39,0.00,,,0.00,79.000000,,2013-04-14 01:12:00,
2013-04-13 21:22:00,71.0,45.0,-100.00,NNE,12,0.0,15.0,39,0.00,,,0.00,79.000000,,2013-04-14 01:22:00,
2013-04-13 21:32:00,64.0,48.0,-100.00,ENE,76,0.0,3.0,56,0.00,,,0.00,1.000000,,2013-04-14 01:32:00,
2013-04-13 21:53:00,64.0,48.0,-100.00,ENE,76,0.0,3.0,56,0.00,,,0.00,1.000000,,2013-04-14 01:53:00,
2013-04-13 22:02:00,64.0,48.0,-100.00,ENE,76,0.0,3.0,56,0.00,,,0.00,1.000000,,2013-04-14 02:02:00,
2013-04-13 22:12:00,64.0,48.0,-100.00,ENE,76,0.0,3.0,56,0.00,,,0.00,1.000000,,2013-04-14 02:12:00,
2013-04-13 22:22:00,64.0,48.0,-100.00,ENE,76,0.0,3.0,56,0.00,,,0.00,1.000000,,2013-04-14 02:22:00,
2013-04-13 22:32:00,62.0,49.0,-100.00,East,101,2.0,4.0,62,0.00,,,0.00,0.000000,,2013-04-14 02:32:00,
2013-04-13 22:53:00,62.0,49.0,-100.00,East,101,2.0,4.0,62,0.00,,,0.00,0.000000,,2013-04-14 02:53:00,
2013-04-13 23:02:00,62.0,49.0,-100.00,East,101,2.0,4.0,62,0.00,,,0.00,0.000000,,2013-04-14 03:02:00,
2013-04-13 23:12:00,62.0,49.0,-100.00,East,101,2.0,4.0,62,0.00,,,0.00,0.000000,,2013-04-14 03:12:00,
2013-04-13 23:22:00,62.0,49.0,-100.00,East,101,2.0,4.0,62,0.00,,,0.00,0.000000,,2013-04-14 03:22:00,
2013-04-13 23:32:00,62.0,47.0,-100.00,SW,219,0.0,5.0,59,0.00,,,0.00,0.000000,,2013-04-14 03:32:00,
2013-04-13 23:53:00,62.0,47.0,-100.00,SW,219,0.0,5.0,59,0.00,,,0.00,0.000000,,2013-04-14 03:53:00,